^^
Meteo Knjazevac Station Historical Data
Daily Summary for March 12, 2021 Units:  Both    English   Metric
Daily Weekly Monthly Yearly Custom
  High: Low: Average:
Temperature: 94.1 °F /  34.5 °C 58.5 °F /  14.7 °C 73.2 °F /  22.9 °C
Dew Point: 65.6 °F /  18.7 °C 53.8 °F /  12.1 °C 59.4 °F /  15.2 °C
Humidity: 86% 35% 66%
Wind Speed: 8mph /  12.9km/h - 1.5mph /  2.4km/h
Wind Gust: 14mph /  22.5km/h - -
Wind- - WSW
Pressure: 30.17 in /  1021.6 hPa 30.09 in /  1018.8 hPa -
Precipitation: 0.00 in /  0 mm    
Historical Graphs
 
 
Tabular Data for March 12, 2021
Time Temperature Dew Point Pressure Wind Wind Speed Wind Gust Humidity Rainfall Rate (Hourly) solar Conditions
00:00 68.5 °F /  20.3 °C 58.4 °F /  14.7 °C 30.09in /  1018.8hPa WSW 1mph /  1.6km/h 4mph /  6.4km/h 70% 0.00in /  0mm 0 W/m2
00:10 68.4 °F /  20.2 °C 58.2 °F /  14.6 °C 30.09in /  1018.8hPa Calm   2mph /  3.2km/h 70% 0.00in /  0mm 0 W/m2
00:20 68 °F /  20 °C 58.6 °F /  14.8 °C 30.09in /  1018.8hPa West 1mph /  1.6km/h 2mph /  3.2km/h 72% 0.00in /  0mm 0 W/m2
00:30 67.8 °F /  19.9 °C 58.5 °F /  14.7 °C 30.10in /  1019.2hPa WSW 1mph /  1.6km/h 2mph /  3.2km/h 72% 0.00in /  0mm 0 W/m2
00:40 67.5 °F /  19.7 °C 58.5 °F /  14.7 °C 30.10in /  1019.2hPa Calm   1mph /  1.6km/h 73% 0.00in /  0mm 0 W/m2
00:50 67.1 °F /  19.5 °C 58.2 °F /  14.6 °C 30.10in /  1019.2hPa Calm   2mph /  3.2km/h 73% 0.00in /  0mm 0 W/m2
01:00 66.4 °F /  19.1 °C 57.8 °F /  14.3 °C 30.10in /  1019.2hPa NW 1mph /  1.6km/h 3mph /  4.8km/h 74% 0.00in /  0mm 0 W/m2
01:10 66 °F /  18.9 °C 57.4 °F /  14.1 °C 30.10in /  1019.2hPa Calm   2mph /  3.2km/h 74% 0.00in /  0mm 0 W/m2
01:20 65.5 °F /  18.6 °C 57.3 °F /  14.1 °C 30.10in /  1019.2hPa WSW 1mph /  1.6km/h 3mph /  4.8km/h 75% 0.00in /  0mm 0 W/m2
01:30 65.1 °F /  18.4 °C 57 °F /  13.9 °C 30.10in /  1019.2hPa Calm   2mph /  3.2km/h 75% 0.00in /  0mm 0 W/m2
01:40 65.1 °F /  18.4 °C 57.7 °F /  14.3 °C 30.10in /  1019.2hPa Calm   2mph /  3.2km/h 77% 0.00in /  0mm 0 W/m2
01:50 64.6 °F /  18.1 °C 57.2 °F /  14 °C 30.11in /  1019.5hPa NW 1mph /  1.6km/h 2mph /  3.2km/h 77% 0.00in /  0mm 0 W/m2
02:00 64.2 °F /  17.9 °C 56.8 °F /  13.8 °C 30.11in /  1019.5hPa Calm   2mph /  3.2km/h 77% 0.00in /  0mm 0 W/m2
02:10 63.5 °F /  17.5 °C 56.2 °F /  13.4 °C 30.11in /  1019.5hPa WNW 1mph /  1.6km/h 2mph /  3.2km/h 77% 0.00in /  0mm 0 W/m2
02:20 63.3 °F /  17.4 °C 56 °F /  13.3 °C 30.11in /  1019.5hPa West 2mph /  3.2km/h 4mph /  6.4km/h 77% 0.00in /  0mm 0 W/m2
02:30 63.3 °F /  17.4 °C 55.6 °F /  13.1 °C 30.11in /  1019.5hPa West 1mph /  1.6km/h 3mph /  4.8km/h 76% 0.00in /  0mm 0 W/m2
02:40 63 °F /  17.2 °C 56 °F /  13.3 °C 30.11in /  1019.5hPa Calm   2mph /  3.2km/h 78% 0.00in /  0mm 0 W/m2
02:50 62.7 °F /  17.1 °C 55.8 °F /  13.2 °C 30.11in /  1019.5hPa Calm   2mph /  3.2km/h 78% 0.00in /  0mm 0 W/m2
03:00 62.4 °F /  16.9 °C 55.5 °F /  13.1 °C 30.12in /  1019.9hPa Calm   1mph /  1.6km/h 78% 0.00in /  0mm 0 W/m2
03:10 62.2 °F /  16.8 °C 55.6 °F /  13.1 °C 30.11in /  1019.5hPa Calm   2mph /  3.2km/h 79% 0.00in /  0mm 0 W/m2
03:20 62.1 °F /  16.7 °C 55.5 °F /  13.1 °C 30.12in /  1019.9hPa Calm   1mph /  1.6km/h 79% 0.00in /  0mm 0 W/m2
03:30 61.8 °F /  16.6 °C 55.2 °F /  12.9 °C 30.12in /  1019.9hPa West 2mph /  3.2km/h 3mph /  4.8km/h 79% 0.00in /  0mm 0 W/m2
03:40 61.7 °F /  16.5 °C 54.8 °F /  12.7 °C 30.12in /  1019.9hPa WNW 1mph /  1.6km/h 4mph /  6.4km/h 78% 0.00in /  0mm 0 W/m2
03:50 61.9 °F /  16.6 °C 54.9 °F /  12.7 °C 30.12in /  1019.9hPa Calm   3mph /  4.8km/h 78% 0.00in /  0mm 0 W/m2
04:00 61.5 °F /  16.4 °C 54.9 °F /  12.7 °C 30.12in /  1019.9hPa Calm   2mph /  3.2km/h 79% 0.00in /  0mm 0 W/m2
04:10 61.3 °F /  16.3 °C 55.1 °F /  12.8 °C 30.12in /  1019.9hPa Calm   2mph /  3.2km/h 80% 0.00in /  0mm 0 W/m2
04:20 60.8 °F /  16 °C 54.6 °F /  12.6 °C 30.12in /  1019.9hPa Calm   2mph /  3.2km/h 80% 0.00in /  0mm 0 W/m2
04:30 60.6 °F /  15.9 °C 54.8 °F /  12.7 °C 30.12in /  1019.9hPa Calm   2mph /  3.2km/h 81% 0.00in /  0mm 0 W/m2
04:40 60.4 °F /  15.8 °C 54.5 °F /  12.5 °C 30.13in /  1020.2hPa Calm   2mph /  3.2km/h 81% 0.00in /  0mm 0 W/m2
04:50 60.1 °F /  15.6 °C 54.2 °F /  12.3 °C 30.13in /  1020.2hPa WNW 1mph /  1.6km/h 2mph /  3.2km/h 81% 0.00in /  0mm 0 W/m2
05:00 59.7 °F /  15.4 °C 53.9 °F /  12.2 °C 30.13in /  1020.2hPa WSW 1mph /  1.6km/h 2mph /  3.2km/h 81% 0.00in /  0mm 0 W/m2
05:10 59.4 °F /  15.2 °C 54.2 °F /  12.3 °C 30.13in /  1020.2hPa WNW 1mph /  1.6km/h 2mph /  3.2km/h 83% 0.00in /  0mm 0 W/m2
05:20 59.4 °F /  15.2 °C 54.2 °F /  12.3 °C 30.13in /  1020.2hPa Calm   2mph /  3.2km/h 83% 0.00in /  0mm 0 W/m2
05:30 59.2 °F /  15.1 °C 54 °F /  12.2 °C 30.14in /  1020.5hPa Calm   2mph /  3.2km/h 83% 0.00in /  0mm 0 W/m2
05:40 58.9 °F /  14.9 °C 54.1 °F /  12.3 °C 30.14in /  1020.5hPa NW 1mph /  1.6km/h 1mph /  1.6km/h 84% 0.00in /  0mm 7 W/m2
05:50 58.6 °F /  14.8 °C 53.8 °F /  12.1 °C 30.14in /  1020.5hPa NW 2mph /  3.2km/h 3mph /  4.8km/h 84% 0.00in /  0mm 13 W/m2
06:00 58.6 °F /  14.8 °C 54.1 °F /  12.3 °C 30.14in /  1020.5hPa West 1mph /  1.6km/h 2mph /  3.2km/h 85% 0.00in /  0mm 22 W/m2
06:10 58.5 °F /  14.7 °C 54 °F /  12.2 °C 30.15in /  1020.9hPa West 1mph /  1.6km/h 2mph /  3.2km/h 85% 0.00in /  0mm 35 W/m2
06:20 58.5 °F /  14.7 °C 54 °F /  12.2 °C 30.15in /  1020.9hPa Calm   3mph /  4.8km/h 85% 0.00in /  0mm 43 W/m2
06:30 58.5 °F /  14.7 °C 54 °F /  12.2 °C 30.15in /  1020.9hPa NW 1mph /  1.6km/h 2mph /  3.2km/h 85% 0.00in /  0mm 53 W/m2
06:40 58.6 °F /  14.8 °C 54.1 °F /  12.3 °C 30.15in /  1020.9hPa Calm   2mph /  3.2km/h 85% 0.00in /  0mm 90 W/m2
06:50 58.9 °F /  14.9 °C 54.4 °F /  12.4 °C 30.15in /  1020.9hPa Calm   1mph /  1.6km/h 85% 0.00in /  0mm 124 W/m2
07:00 59.2 °F /  15.1 °C 55 °F /  12.8 °C 30.15in /  1020.9hPa Calm   2mph /  3.2km/h 86% 0.00in /  0mm 135 W/m2
07:10 59.7 °F /  15.4 °C 55.5 °F /  13.1 °C 30.16in /  1021.2hPa Calm   2mph /  3.2km/h 86% 0.00in /  0mm 113 W/m2
07:20 60.4 °F /  15.8 °C 56.2 °F /  13.4 °C 30.16in /  1021.2hPa NW 1mph /  1.6km/h 3mph /  4.8km/h 86% 0.00in /  0mm 187 W/m2
07:30 61.3 °F /  16.3 °C 56.8 °F /  13.8 °C 30.16in /  1021.2hPa NW 1mph /  1.6km/h 2mph /  3.2km/h 85% 0.00in /  0mm 251 W/m2
07:40 62.2 °F /  16.8 °C 57.3 °F /  14.1 °C 30.16in /  1021.2hPa Calm   4mph /  6.4km/h 84% 0.00in /  0mm 284 W/m2
07:50 63.3 °F /  17.4 °C 58.1 °F /  14.5 °C 30.16in /  1021.2hPa Calm   2mph /  3.2km/h 83% 0.00in /  0mm 324 W/m2
08:00 64.2 °F /  17.9 °C 57.9 °F /  14.4 °C 30.17in /  1021.6hPa WNW 1mph /  1.6km/h 2mph /  3.2km/h 80% 0.00in /  0mm 370 W/m2
08:10 65.2 °F /  18.4 °C 58.5 °F /  14.7 °C 30.17in /  1021.6hPa WNW 1mph /  1.6km/h 3mph /  4.8km/h 79% 0.00in /  0mm 417 W/m2
08:20 66.3 °F /  19.1 °C 59.2 °F /  15.1 °C 30.17in /  1021.6hPa NW 1mph /  1.6km/h 3mph /  4.8km/h 78% 0.00in /  0mm 445 W/m2
08:30 67.7 °F /  19.8 °C 60.2 °F /  15.7 °C 30.17in /  1021.6hPa Calm   3mph /  4.8km/h 77% 0.00in /  0mm 480 W/m2
08:40 69.2 °F /  20.7 °C 60.5 °F /  15.8 °C 30.17in /  1021.6hPa SE 1mph /  1.6km/h 5mph /  8km/h 74% 0.00in /  0mm 482 W/m2
08:50 70.4 °F /  21.3 °C 61.3 °F /  16.3 °C 30.17in /  1021.6hPa SSE 1mph /  1.6km/h 4mph /  6.4km/h 73% 0.00in /  0mm 540 W/m2
09:00 72.2 °F /  22.3 °C 62.3 °F /  16.8 °C 30.17in /  1021.6hPa Calm   3mph /  4.8km/h 71% 0.00in /  0mm 567 W/m2
09:10 74.8 °F /  23.8 °C 63.6 °F /  17.6 °C 30.17in /  1021.6hPa Calm   4mph /  6.4km/h 68% 0.00in /  0mm 602 W/m2
09:20 76.9 °F /  24.9 °C 64.2 °F /  17.9 °C 30.17in /  1021.6hPa SW 1mph /  1.6km/h 3mph /  4.8km/h 65% 0.00in /  0mm 629 W/m2
09:30 78.5 °F /  25.8 °C 64.9 °F /  18.3 °C 30.16in /  1021.2hPa Calm   5mph /  8km/h 63% 0.00in /  0mm 655 W/m2
09:40 79.6 °F /  26.4 °C 65 °F /  18.3 °C 30.17in /  1021.6hPa WSW 1mph /  1.6km/h 3mph /  4.8km/h 61% 0.00in /  0mm 680 W/m2
09:50 80.8 °F /  27.1 °C 65.6 °F /  18.7 °C 30.16in /  1021.2hPa WNW 1mph /  1.6km/h 4mph /  6.4km/h 60% 0.00in /  0mm 704 W/m2
10:00 82.2 °F /  27.9 °C 65.5 °F /  18.6 °C 30.16in /  1021.2hPa SW 2mph /  3.2km/h 5mph /  8km/h 57% 0.00in /  0mm 726 W/m2
10:10 83.2 °F /  28.4 °C 64.8 °F /  18.2 °C 30.16in /  1021.2hPa SSW 2mph /  3.2km/h 5mph /  8km/h 54% 0.00in /  0mm 748 W/m2
10:20 84 °F /  28.9 °C 65 °F /  18.3 °C 30.16in /  1021.2hPa SSE 2mph /  3.2km/h 6mph /  9.7km/h 53% 0.00in /  0mm 768 W/m2
10:30 85.1 °F /  29.5 °C 65.5 °F /  18.6 °C 30.16in /  1021.2hPa SW 2mph /  3.2km/h 6mph /  9.7km/h 52% 0.00in /  0mm 787 W/m2
10:40 85.9 °F /  29.9 °C 64.5 °F /  18.1 °C 30.16in /  1021.2hPa SSW 1mph /  1.6km/h 5mph /  8km/h 49% 0.00in /  0mm 805 W/m2
10:50 86.7 °F /  30.4 °C 64.1 °F /  17.8 °C 30.15in /  1020.9hPa SSE 3mph /  4.8km/h 5mph /  8km/h 47% 0.00in /  0mm 139 W/m2
11:00 87.3 °F /  30.7 °C 63.3 °F /  17.4 °C 30.15in /  1020.9hPa South 1mph /  1.6km/h 6mph /  9.7km/h 45% 0.00in /  0mm 691 W/m2
11:10 88.1 °F /  31.2 °C 64.1 °F /  17.8 °C 30.15in /  1020.9hPa SW 2mph /  3.2km/h 6mph /  9.7km/h 45% 0.00in /  0mm 246 W/m2
11:20 88.7 °F /  31.5 °C 63.3 °F /  17.4 °C 30.15in /  1020.9hPa West 2mph /  3.2km/h 5mph /  8km/h 43% 0.00in /  0mm 396 W/m2
11:30 89.2 °F /  31.8 °C 63.8 °F /  17.7 °C 30.15in /  1020.9hPa SSW 3mph /  4.8km/h 7mph /  11.3km/h 43% 0.00in /  0mm 873 W/m2
11:40 90.1 °F /  32.3 °C 64.5 °F /  18.1 °C 30.15in /  1020.9hPa ESE 2mph /  3.2km/h 5mph /  8km/h 43% 0.00in /  0mm 883 W/m2
11:50 90.6 °F /  32.6 °C 64.4 °F /  18 °C 30.15in /  1020.9hPa ESE 3mph /  4.8km/h 5mph /  8km/h 42% 0.00in /  0mm 890 W/m2
12:00 90.9 °F /  32.7 °C 63.2 °F /  17.3 °C 30.14in /  1020.5hPa ESE 3mph /  4.8km/h 5mph /  8km/h 40% 0.00in /  0mm 896 W/m2
12:10 91.4 °F /  33 °C 63.7 °F /  17.6 °C 30.14in /  1020.5hPa South 3mph /  4.8km/h 7mph /  11.3km/h 40% 0.00in /  0mm 901 W/m2
12:20 91.9 °F /  33.3 °C 63.4 °F /  17.4 °C 30.14in /  1020.5hPa SW 3mph /  4.8km/h 7mph /  11.3km/h 39% 0.00in /  0mm 904 W/m2
12:30 92.3 °F /  33.5 °C 64.5 °F /  18.1 °C 30.14in /  1020.5hPa SW 5mph /  8km/h 8mph /  12.9km/h 40% 0.00in /  0mm 905 W/m2
12:40 92.6 °F /  33.7 °C 65.4 °F /  18.6 °C 30.14in /  1020.5hPa North 2mph /  3.2km/h 8mph /  12.9km/h 41% 0.00in /  0mm 905 W/m2
12:50 93.6 °F /  34.2 °C 64.9 °F /  18.3 °C 30.13in /  1020.2hPa SSE 2mph /  3.2km/h 6mph /  9.7km/h 39% 0.00in /  0mm 903 W/m2
13:00 92.4 °F /  33.6 °C 64.6 °F /  18.1 °C 30.13in /  1020.2hPa WSW 3mph /  4.8km/h 7mph /  11.3km/h 40% 0.00in /  0mm 201 W/m2
13:10 91.1 °F /  32.8 °C 64.2 °F /  17.9 °C 30.13in /  1020.2hPa West 1mph /  1.6km/h 9mph /  14.5km/h 41% 0.00in /  0mm 895 W/m2
13:20 92.4 °F /  33.6 °C 63.8 °F /  17.7 °C 30.13in /  1020.2hPa NW 3mph /  4.8km/h 8mph /  12.9km/h 39% 0.00in /  0mm 577 W/m2
13:30 92.7 °F /  33.7 °C 64.1 °F /  17.8 °C 30.13in /  1020.2hPa SW 5mph /  8km/h 8mph /  12.9km/h 39% 0.00in /  0mm 443 W/m2
13:40 92.2 °F /  33.4 °C 62.9 °F /  17.2 °C 30.13in /  1020.2hPa WSW 6mph /  9.7km/h 10mph /  16.1km/h 38% 0.00in /  0mm 871 W/m2
13:50 93 °F /  33.9 °C 63.7 °F /  17.6 °C 30.13in /  1020.2hPa WSW 5mph /  8km/h 12mph /  19.3km/h 38% 0.00in /  0mm 860 W/m2
14:00 93.2 °F /  34 °C 63.8 °F /  17.7 °C 30.13in /  1020.2hPa West 8mph /  12.9km/h 14mph /  22.5km/h 38% 0.00in /  0mm 847 W/m2
14:10 93.6 °F /  34.2 °C 64.1 °F /  17.8 °C 30.13in /  1020.2hPa WNW 5mph /  8km/h 12mph /  19.3km/h 38% 0.00in /  0mm 833 W/m2
14:20 94 °F /  34.4 °C 62.2 °F /  16.8 °C 30.13in /  1020.2hPa NNW 7mph /  11.3km/h 12mph /  19.3km/h 35% 0.00in /  0mm 818 W/m2
14:30 94.1 °F /  34.5 °C 63.1 °F /  17.3 °C 30.12in /  1019.9hPa WNW 5mph /  8km/h 9mph /  14.5km/h 36% 0.00in /  0mm 801 W/m2
14:40 94.1 °F /  34.5 °C 62.3 °F /  16.8 °C 30.12in /  1019.9hPa NNW 3mph /  4.8km/h 14mph /  22.5km/h 35% 0.00in /  0mm 783 W/m2
14:50 93.9 °F /  34.4 °C 62.1 °F /  16.7 °C 30.12in /  1019.9hPa WSW 7mph /  11.3km/h 14mph /  22.5km/h 35% 0.00in /  0mm 764 W/m2
15:00 94 °F /  34.4 °C 62.2 °F /  16.8 °C 30.12in /  1019.9hPa West 7mph /  11.3km/h 14mph /  22.5km/h 35% 0.00in /  0mm 743 W/m2
Knjazevac, Serbia
Compliments of Weather Underground - 2 mb